Terminal Aerodrome Forecast
Issued by NWS Pueblo, CO

Home | Current Version | Previous Version | Text Only | Print | Product List | Glossary On
Versions: 1 2 3 4 5 6 7 8 9 10 11 12 13 14 15 16 17 18 19 20 21 22 23 24 25 26 27 28 29 30 31 32 33 34 35 36 37 38 39 40 41 42 43 44 45 46 47 48 49 50
000
FTUS45 KPUB 062234 AAA
TAFCOS
TAF AMD
KCOS 062234Z 0623/0718 06014G24KT P6SM VCSH SCT015 OVC050
      TEMPO 0623/0701 6SM -SHRA BKN015
     FM070200 06008KT P6SM SCT030 BKN050
     FM070600 13006KT 5SM BR BKN020
     FM070900 14007KT 3SM BR BKN015
     FM071700 18008KT P6SM SCT015 BKN080=

USA.gov is the U.S. government's official web portal to all federal, state and local government web resources and services.